Time;durP1;ratioP1;P1;durP2;ratioP2;P2;SDS_P1;SDS_P2;PMS_P1;PMS_P2;Temp;Humidity;BMP_temperature;BMP_pressure;BME280_temperature;BME280_humidity;BME280_pressure;Samples;Min_cycle;Max_cycle;Signal;HPM_P1;HPM_P2
2024/01/11 00:00:19;;;;;;;20.00;10.27;;;;;;;-2.10;67.41;100266.59;7230864;40;20808;31
2024/01/11 00:05:52;;;;;;;15.07;9.63;;;;;;;-2.00;67.73;100267.97;7220960;40;20809;31
2024/01/11 00:11:27;;;;;;;18.50;9.95;;;;;;;-2.01;67.45;100279.44;7239350;40;20716;31
2024/01/11 00:17:03;;;;;;;17.10;10.40;;;;;;;-2.05;67.53;100268.16;7238381;40;20400;31
2024/01/11 00:22:38;;;;;;;16.20;9.75;;;;;;;-2.07;67.53;100270.00;7226780;40;20243;31
2024/01/11 00:28:13;;;;;;;18.23;10.70;;;;;;;-2.16;67.38;100277.44;7242691;40;20258;31
2024/01/11 00:33:49;;;;;;;25.40;10.43;;;;;;;-2.22;68.83;100272.38;7245915;40;20791;31
2024/01/11 00:39:11;;;;;;;18.13;10.77;;;;;;;-2.19;68.01;100262.56;7217476;40;20811;31
2024/01/11 00:49:48;;;;;;;19.53;11.43;;;;;;;-2.19;68.86;100275.75;7235662;40;20762;31
2024/01/11 01:00:25;;;;;;;18.63;10.97;;;;;;;-2.16;68.12;100269.50;7188909;40;21413;31
2024/01/11 01:06:01;;;;;;;16.50;10.60;;;;;;;-2.14;68.00;100268.53;7276615;39;20246;31
2024/01/11 01:11:34;;;;;;;17.15;10.70;;;;;;;-2.08;67.82;100270.06;7258737;39;20905;31
2024/01/11 01:16:54;;;;;;;17.13;10.73;;;;;;;-2.09;68.56;100271.84;7197795;40;20752;31
2024/01/11 01:22:30;;;;;;;16.03;10.10;;;;;;;-2.12;68.57;100271.97;7187854;40;20437;31
2024/01/11 01:27:50;;;;;;;17.40;10.80;;;;;;;-2.03;67.89;100273.38;7226351;40;20796;31
2024/01/11 01:33:22;;;;;;;17.55;10.60;;;;;;;-2.07;68.29;100280.56;7255377;39;20456;31
2024/01/11 01:38:58;;;;;;;20.17;10.33;;;;;;;-2.17;68.13;100288.91;7268126;39;20345;31
2024/01/11 01:44:19;;;;;;;16.37;10.63;;;;;;;-2.21;69.02;100290.81;7228240;40;20787;31
2024/01/11 01:49:53;;;;;;;19.00;10.80;;;;;;;-2.32;69.27;100296.50;7260240;40;20241;31
2024/01/11 01:55:29;;;;;;;16.40;10.03;;;;;;;-2.30;69.19;100305.22;7257052;40;20783;31
2024/01/11 02:06:05;;;;;;;19.37;10.30;;;;;;;-2.40;69.25;100309.13;7261884;40;21362;31
2024/01/11 02:11:41;;;;;;;18.83;10.03;;;;;;;-2.30;69.62;100307.00;7234259;40;20838;31
2024/01/11 02:17:02;;;;;;;17.20;10.40;;;;;;;-2.17;69.16;100307.41;7259961;39;20968;31
2024/01/11 02:22:37;;;;;;;16.20;9.40;;;;;;;-2.18;68.30;100305.66;7302927;39;20315;31
2024/01/11 02:28:13;;;;;;;17.87;10.73;;;;;;;-2.23;69.28;100300.56;7285937;39;20807;31
2024/01/11 02:33:48;;;;;;;18.67;9.83;;;;;;;-2.25;69.35;100302.41;7223656;40;20831;31
2024/01/11 02:39:23;;;;;;;17.77;10.33;;;;;;;-2.35;69.48;100301.03;7199695;40;20254;31
2024/01/11 02:44:59;;;;;;;17.40;9.87;;;;;;;-2.41;69.45;100296.00;7247877;40;20796;31
2024/01/11 02:50:34;;;;;;;15.25;9.80;;;;;;;-2.24;69.24;100298.00;7252072;40;20719;31
2024/01/11 02:55:55;;;;;;;15.83;9.23;;;;;;;-2.20;69.38;100294.31;7209713;40;20964;31
2024/01/11 03:07:32;;;;;;;15.57;10.20;;;;;;;-2.22;69.17;100283.81;7237326;40;20277;31
2024/01/11 03:18:10;;;;;;;17.70;10.00;;;;;;;-2.27;69.72;100277.84;7316426;39;20327;31
2024/01/11 03:23:45;;;;;;;16.70;10.50;;;;;;;-2.24;68.74;100272.47;7281535;40;22048;31
2024/01/11 03:29:19;;;;;;;16.10;11.35;;;;;;;-2.22;69.05;100286.44;7280733;40;20824;31
2024/01/11 03:34:40;;;;;;;17.23;10.27;;;;;;;-2.27;69.17;100293.69;7224260;40;20402;31
2024/01/11 03:40:17;;;;;;;17.00;9.90;;;;;;;-2.35;69.46;100290.47;7247869;40;20661;31
2024/01/11 03:45:34;;;;;;;15.93;8.93;;;;;;;-2.44;69.77;100285.56;7021924;40;20248;31
2024/01/11 03:50:55;;;;;;;18.87;10.20;;;;;;;-2.49;69.91;100284.87;7221346;40;20799;31
2024/01/11 03:56:31;;;;;;;18.80;9.50;;;;;;;-2.54;70.32;100278.91;7268326;39;20880;31
2024/01/11 04:02:06;;;;;;;16.67;10.23;;;;;;;-2.57;70.62;100271.97;7225340;40;21009;31
2024/01/11 04:12:47;;;;;;;18.25;10.85;;;;;;;-2.60;71.17;100266.81;7218191;40;20759;31
2024/01/11 04:23:11;;;;;;;16.57;9.73;;;;;;;-2.54;70.87;100274.47;7291938;39;20395;31
2024/01/11 04:28:47;;;;;;;18.70;9.30;;;;;;;-2.53;70.35;100276.22;7242043;39;20798;31
2024/01/11 04:39:11;;;;;;;18.40;9.80;;;;;;;-2.54;71.58;100278.91;7237862;39;20490;31
2024/01/11 04:49:52;;;;;;;16.33;9.87;;;;;;;-2.56;70.62;100275.47;7286848;39;20883;31
2024/01/11 04:55:13;;;;;;;18.90;9.80;;;;;;;-2.53;71.35;100275.34;7282142;40;20244;31
2024/01/11 05:00:49;;;;;;;16.83;9.93;;;;;;;-2.56;71.51;100286.03;7257482;40;20789;31
2024/01/11 05:06:32;;;;;;;18.53;10.47;;;;;;;-2.59;70.94;100297.56;7220036;40;20275;31
2024/01/11 05:12:07;;;;;;;18.50;10.10;;;;;;;-2.58;71.90;100301.91;7217576;40;20765;31
2024/01/11 05:17:42;;;;;;;16.77;9.87;;;;;;;-2.57;71.87;100305.41;7214074;40;20313;31
2024/01/11 05:23:19;;;;;;;17.00;10.13;;;;;;;-2.55;71.34;100304.44;7207733;40;20781;31
2024/01/11 05:28:55;;;;;;;14.67;8.87;;;;;;;-2.57;72.08;100308.91;7169097;40;20243;31
2024/01/11 05:34:16;;;;;;;17.63;9.33;;;;;;;-2.50;71.96;100310.38;7158728;40;20354;31
2024/01/11 05:39:54;;;;;;;19.60;11.00;;;;;;;-2.49;72.09;100308.63;7161310;40;20773;31
2024/01/11 05:45:16;;;;;;;17.75;10.55;;;;;;;-2.49;71.26;100316.53;7192890;40;20721;31
2024/01/11 05:55:54;;;;;;;18.87;10.83;;;;;;;-2.55;71.26;100320.28;7204935;40;20878;31
2024/01/11 06:06:33;;;;;;;17.70;10.40;;;;;;;-2.55;71.90;100325.56;7322607;39;20420;31
2024/01/11 06:12:10;;;;;;;18.73;10.57;;;;;;;-2.58;72.24;100330.06;7299580;39;20256;31
2024/01/11 06:17:31;;;;;;;18.73;10.60;;;;;;;-2.57;72.09;100327.38;7241233;40;20265;31
2024/01/11 06:22:51;;;;;;;17.40;10.47;;;;;;;-2.55;72.02;100328.19;7197910;40;20823;31
2024/01/11 06:28:27;;;;;;;20.83;10.90;;;;;;;-2.56;71.93;100323.84;7232772;40;20324;31
2024/01/11 06:33:48;;;;;;;20.10;11.33;;;;;;;-2.52;71.49;100327.22;7228367;40;20320;31
2024/01/11 06:39:23;;;;;;;17.05;10.40;;;;;;;-2.55;71.94;100330.84;7217732;40;20243;31
2024/01/11 06:44:57;;;;;;;17.93;10.83;;;;;;;-2.56;71.50;100331.75;7187614;40;20397;31
2024/01/11 06:50:32;;;;;;;17.64;10.82;;;;;;;-2.53;71.96;100350.09;7198708;40;21348;31
2024/01/11 06:55:53;;;;;;;19.75;11.30;;;;;;;-2.59;71.67;100354.75;7159036;40;20805;31
2024/01/11 07:01:30;;;;;;;21.90;10.90;;;;;;;-2.59;71.57;100365.31;7199497;40;20988;31
2024/01/11 07:06:51;;;;;;;20.43;12.20;;;;;;;-2.58;71.51;100377.56;7227582;39;20678;31
2024/01/11 07:12:11;;;;;;;18.50;11.40;;;;;;;-2.68;72.08;100384.12;7254206;40;20883;31
2024/01/11 07:17:47;;;;;;;19.20;10.50;;;;;;;-2.72;72.84;100387.78;7192212;40;20254;31
2024/01/11 07:23:09;;;;;;;18.60;10.70;;;;;;;-2.74;72.25;100396.59;7223732;40;20673;31
2024/01/11 07:28:43;;;;;;;20.23;11.23;;;;;;;-2.72;72.70;100387.78;7281547;40;20815;31
2024/01/11 07:34:20;;;;;;;15.93;10.13;;;;;;;-2.75;72.41;100394.00;7258076;40;20243;31
2024/01/11 07:39:40;;;;;;;16.75;10.70;;;;;;;-2.75;72.55;100402.78;7235595;40;20801;31
2024/01/11 07:45:00;;;;;;;19.16;11.78;;;;;;;-2.72;72.04;100417.63;7207699;40;21615;31
2024/01/11 07:50:37;;;;;;;19.35;10.90;;;;;;;-2.75;72.39;100423.03;7254286;39;20826;31
2024/01/11 07:56:10;;;;;;;20.07;10.47;;;;;;;-2.74;72.22;100430.91;7216429;40;20824;31
2024/01/11 08:01:30;;;;;;;19.65;11.60;;;;;;;-2.76;72.82;100430.06;7187524;40;20329;31
2024/01/11 08:07:06;;;;;;;19.77;11.37;;;;;;;-2.76;72.82;100437.97;7247270;40;20247;31
2024/01/11 08:12:26;;;;;;;22.07;13.43;;;;;;;-2.68;72.30;100434.25;7246209;39;20764;31
2024/01/11 08:18:01;;;;;;;24.70;13.47;;;;;;;-2.66;72.83;100435.03;7292518;39;20341;31
2024/01/11 08:28:42;;;;;;;21.10;12.70;;;;;;;-2.64;72.65;100433.22;7272716;39;20280;31
2024/01/11 08:34:03;;;;;;;20.90;13.25;;;;;;;-2.58;73.24;100443.53;7247558;39;20392;31
2024/01/11 08:39:23;;;;;;;23.70;11.73;;;;;;;-2.54;72.70;100426.69;7257110;40;20756;31
2024/01/11 08:44:58;;;;;;;20.03;12.10;;;;;;;-2.48;73.11;100437.03;7256405;40;20943;31
2024/01/11 08:50:20;;;;;;;21.50;12.20;;;;;;;-2.37;72.46;100442.78;7218121;39;20877;31
2024/01/11 08:55:39;;;;;;;23.80;13.40;;;;;;;-2.24;72.50;100452.00;7280728;39;20240;31
2024/01/11 09:01:14;;;;;;;24.83;13.07;;;;;;;-2.20;72.75;100452.75;7243146;40;20537;31
2024/01/11 09:06:50;;;;;;;24.53;13.30;;;;;;;-2.17;72.28;100444.69;7273931;39;20237;31
2024/01/11 09:12:11;;;;;;;23.10;12.50;;;;;;;-2.04;71.91;100438.91;7231899;40;20250;31
2024/01/11 09:17:46;;;;;;;24.73;14.23;;;;;;;-1.96;72.41;100452.69;7275059;40;20822;31
2024/01/11 09:23:23;;;;;;;24.43;13.60;;;;;;;-1.88;72.41;100460.31;7258017;40;20698;31
2024/01/11 09:28:58;;;;;;;25.50;13.60;;;;;;;-1.77;71.31;100459.91;7231435;40;20772;31
2024/01/11 09:34:35;;;;;;;23.50;13.35;;;;;;;-1.72;70.95;100452.69;7196414;40;20995;31
2024/01/11 09:40:10;;;;;;;26.58;13.70;;;;;;;-1.62;71.33;100461.94;7177378;40;20798;31
2024/01/11 09:50:47;;;;;;;25.23;13.63;;;;;;;-1.45;71.33;100476.25;7240365;40;21296;31
2024/01/11 09:56:24;;;;;;;25.27;14.70;;;;;;;-1.36;70.50;100467.94;7246429;40;20248;31
2024/01/11 10:01:59;;;;;;;23.45;11.75;;;;;;;-1.27;70.80;100474.66;7272313;39;20245;31
2024/01/11 10:07:37;;;;;;;24.25;13.80;;;;;;;-1.12;69.82;100455.53;7258095;40;20223;31
2024/01/11 10:12:58;;;;;;;26.60;13.10;;;;;;;-0.99;70.26;100456.75;7178069;40;20393;31
2024/01/11 10:18:20;;;;;;;24.00;12.95;;;;;;;-0.86;69.41;100450.94;7189347;40;20426;31
2024/01/11 10:23:54;;;;;;;23.53;12.67;;;;;;;-0.75;69.10;100451.38;7228574;39;20286;31
2024/01/11 10:34:20;;;;;;;24.93;12.63;;;;;;;-0.51;68.85;100460.91;7276721;39;20757;31
2024/01/11 10:39:55;;;;;;;22.30;12.63;;;;;;;-0.42;68.65;100464.94;7260901;40;20291;31
2024/01/11 10:45:30;;;;;;;23.30;14.83;;;;;;;-0.31;68.95;100475.94;7238641;39;20355;31
2024/01/11 10:51:02;;;;;;;24.97;14.53;;;;;;;-0.27;68.64;100457.19;7075173;39;21269;31
2024/01/11 10:56:40;;;;;;;22.63;13.67;;;;;;;-0.23;67.79;100449.97;7256332;40;20362;31
2024/01/11 11:02:15;;;;;;;21.53;13.40;;;;;;;-0.16;67.91;100446.97;7169496;40;20247;31
2024/01/11 11:07:50;;;;;;;29.00;15.40;;;;;;;-0.07;67.74;100441.25;7216707;40;21496;31
2024/01/11 11:13:27;;;;;;;24.20;13.43;;;;;;;0.05;67.12;100445.12;7147517;40;20291;31
2024/01/11 11:24:05;;;;;;;20.37;13.37;;;;;;;0.23;67.00;100449.59;7187497;40;21249;31
2024/01/11 11:34:57;;;;;;;24.37;12.63;;;;;;;0.50;66.62;100433.31;7253632;39;21127;31
2024/01/11 11:40:18;;;;;;;23.70;14.05;;;;;;;0.59;67.09;100420.47;7298128;40;20258;31
2024/01/11 11:45:53;;;;;;;23.70;14.40;;;;;;;0.71;66.58;100419.00;7249683;40;20372;31
2024/01/11 11:51:28;;;;;;;24.63;14.60;;;;;;;0.77;66.34;100406.31;7197120;40;20236;31
2024/01/11 11:57:03;;;;;;;22.75;13.85;;;;;;;0.90;65.89;100398.59;7173707;40;20247;31
2024/01/11 12:02:38;;;;;;;20.87;12.97;;;;;;;0.99;65.06;100397.28;7118868;40;20351;31
2024/01/11 12:08:15;;;;;;;19.70;13.20;;;;;;;1.07;65.85;100406.59;7115727;40;20285;31
2024/01/11 12:13:53;;;;;;;22.40;14.10;;;;;;;1.18;64.55;100392.78;7123110;40;20251;31
2024/01/11 12:19:11;;;;;;;22.20;13.75;;;;;;;1.21;64.77;100387.31;7173959;40;20377;31
2024/01/11 12:24:47;;;;;;;25.03;13.83;;;;;;;1.23;64.39;100380.09;7190557;40;20293;31
2024/01/11 12:30:24;;;;;;;22.47;13.63;;;;;;;1.32;64.41;100384.94;7157245;40;20653;31
2024/01/11 12:35:59;;;;;;;24.90;14.70;;;;;;;1.37;63.74;100381.12;7160069;40;20270;31
2024/01/11 12:41:35;;;;;;;24.10;14.95;;;;;;;1.47;64.16;100378.84;7156055;40;20377;31
2024/01/11 12:47:11;;;;;;;23.17;14.67;;;;;;;1.59;64.56;100359.59;7197640;40;20242;31
2024/01/11 12:52:47;;;;;;;24.90;15.25;;;;;;;1.64;64.30;100362.87;7200843;40;20288;31
2024/01/11 12:58:22;;;;;;;23.47;14.03;;;;;;;1.65;63.70;100367.25;7191801;40;20371;31
2024/01/11 13:03:59;;;;;;;22.67;13.93;;;;;;;1.70;64.02;100365.22;7177320;40;20342;31
2024/01/11 13:09:20;;;;;;;27.20;14.90;;;;;;;1.78;63.74;100370.09;7180645;40;20335;31
2024/01/11 13:14:56;;;;;;;22.30;14.40;;;;;;;1.86;62.41;100359.03;7191654;40;20261;31
2024/01/11 13:20:32;;;;;;;26.20;15.90;;;;;;;1.91;64.09;100370.28;7203842;40;20247;31
2024/01/11 13:26:08;;;;;;;20.70;13.30;;;;;;;1.94;63.54;100370.97;7196312;40;20242;31
2024/01/11 13:31:45;;;;;;;23.00;14.40;;;;;;;1.90;62.90;100363.25;7143655;40;20374;31
2024/01/11 13:37:20;;;;;;;23.80;13.77;;;;;;;1.86;62.35;100365.22;7176918;40;20492;31
2024/01/11 13:42:40;;;;;;;22.50;13.73;;;;;;;1.83;62.55;100370.72;7234886;39;20240;31
2024/01/11 13:48:17;;;;;;;23.77;14.50;;;;;;;1.80;63.61;100371.72;7219967;40;20381;31
2024/01/11 13:53:38;;;;;;;24.20;14.20;;;;;;;1.80;63.23;100392.13;7245626;40;20245;31
2024/01/11 14:04:15;;;;;;;22.60;13.50;;;;;;;1.79;64.04;100385.13;7277077;40;21266;31
2024/01/11 14:09:52;;;;;;;27.10;15.60;;;;;;;1.74;63.18;100401.31;7249915;39;20371;31
2024/01/11 14:15:13;;;;;;;24.80;15.07;;;;;;;1.66;63.38;100402.66;7266993;39;20297;31
2024/01/11 14:20:49;;;;;;;22.80;14.63;;;;;;;1.59;64.99;100404.75;7296846;39;20244;31
2024/01/11 14:26:24;;;;;;;22.10;14.80;;;;;;;1.62;64.64;100403.75;7238503;40;20262;31
2024/01/11 14:31:59;;;;;;;21.40;13.40;;;;;;;1.66;64.51;100398.19;7209880;40;20256;31
2024/01/11 14:37:37;;;;;;;20.70;13.00;;;;;;;1.62;64.12;100396.66;7227228;40;20223;31
2024/01/11 14:42:56;;;;;;;22.30;12.87;;;;;;;1.64;64.37;100396.53;7247330;39;20253;31
2024/01/11 14:48:17;;;;;;;21.47;13.13;;;;;;;1.63;63.99;100406.31;7254791;39;20261;31
2024/01/11 14:53:53;;;;;;;20.73;13.20;;;;;;;1.59;64.45;100403.88;7215784;40;20285;31
2024/01/11 15:04:19;;;;;;;21.25;13.30;;;;;;;1.50;64.38;100415.84;7243806;40;20741;31
2024/01/11 15:09:55;;;;;;;26.75;15.10;;;;;;;1.42;64.70;100402.13;7292366;39;20244;31
2024/01/11 15:15:15;;;;;;;23.27;13.30;;;;;;;1.44;65.04;100407.38;7305860;39;20362;31
2024/01/11 15:20:35;;;;;;;22.67;14.13;;;;;;;1.39;65.33;100415.56;7295128;39;20268;31
2024/01/11 15:31:15;;;;;;;21.63;13.67;;;;;;;1.26;65.44;100414.47;7275058;39;20715;31
2024/01/11 15:36:50;;;;;;;24.50;15.10;;;;;;;1.22;65.79;100429.72;7289632;39;20242;31
2024/01/11 15:42:12;;;;;;;31.87;14.47;;;;;;;1.18;66.30;100419.31;7275385;40;20439;31
2024/01/11 15:52:50;;;;;;;25.45;14.65;;;;;;;1.08;66.01;100423.37;7267303;40;20661;31
2024/01/11 15:58:25;;;;;;;27.17;14.37;;;;;;;1.07;66.82;100440.22;7243291;40;20357;31
2024/01/11 16:04:01;;;;;;;22.33;14.17;;;;;;;1.09;66.24;100449.00;7209826;40;20238;31
2024/01/11 16:09:36;;;;;;;24.93;15.07;;;;;;;1.02;66.89;100442.25;7178278;40;20288;31
2024/01/11 16:14:58;;;;;;;23.57;14.90;;;;;;;1.02;66.41;100463.47;7160107;40;20275;31
2024/01/11 16:25:37;;;;;;;24.37;14.97;;;;;;;0.83;66.84;100458.25;7197032;40;20732;31
2024/01/11 16:36:03;;;;;;;24.00;14.90;;;;;;;0.60;67.60;100459.34;7301654;39;20714;31
2024/01/11 16:41:40;;;;;;;29.00;14.70;;;;;;;0.48;67.16;100459.94;7233712;40;20388;31
2024/01/11 16:47:13;;;;;;;25.40;15.15;;;;;;;0.47;67.35;100470.59;7212155;40;20242;31
2024/01/11 16:52:34;;;;;;;22.93;14.57;;;;;;;0.37;67.95;100460.41;7159532;40;20251;31
2024/01/11 16:58:10;;;;;;;21.60;13.97;;;;;;;0.26;68.21;100444.16;7158157;40;20243;31
2024/01/11 17:03:44;;;;;;;28.13;14.87;;;;;;;0.24;68.15;100446.00;7150364;40;20326;31
2024/01/11 17:09:20;;;;;;;29.27;15.00;;;;;;;0.15;68.36;100453.53;7226349;40;20257;31
2024/01/11 17:14:57;;;;;;;24.30;13.75;;;;;;;0.09;67.77;100459.94;7266360;39;20289;31
2024/01/11 17:20:32;;;;;;;23.55;14.85;;;;;;;-0.04;68.46;100464.94;7177367;40;20453;31
2024/01/11 17:25:53;;;;;;;24.60;13.80;;;;;;;-0.01;68.32;100478.09;7157219;40;20382;31
2024/01/11 17:31:29;;;;;;;23.30;14.55;;;;;;;-0.22;69.08;100479.00;7165902;40;20250;31
2024/01/11 17:37:05;;;;;;;23.63;14.40;;;;;;;-0.25;68.51;100494.19;7152155;40;20259;31
2024/01/11 17:47:46;;;;;;;24.67;14.60;;;;;;;-0.33;68.85;100480.41;7244937;40;20355;31
2024/01/11 17:53:06;;;;;;;24.43;14.13;;;;;;;-0.39;68.78;100483.31;6991590;40;21289;31
2024/01/11 17:58:26;;;;;;;22.00;13.53;;;;;;;-0.39;68.95;100485.97;7273736;39;20252;31
2024/01/11 18:04:02;;;;;;;23.23;13.20;;;;;;;-0.50;69.53;100489.97;7317299;39;20251;31
2024/01/11 18:09:38;;;;;;;25.55;13.60;;;;;;;-0.59;69.07;100498.28;7297248;39;20245;31
2024/01/11 18:14:59;;;;;;;27.37;13.87;;;;;;;-0.55;69.69;100509.59;7260737;40;20242;31
2024/01/11 18:20:36;;;;;;;25.23;14.63;;;;;;;-0.63;69.42;100498.50;7276020;40;20257;31
2024/01/11 18:26:11;;;;;;;22.70;13.40;;;;;;;-0.62;69.44;100508.16;7267830;40;20245;31
2024/01/11 18:31:32;;;;;;;21.20;12.80;;;;;;;-0.56;68.81;100507.87;7217494;40;20243;31
2024/01/11 18:37:08;;;;;;;19.47;12.37;;;;;;;-0.53;69.57;100494.53;7211975;40;20369;31
2024/01/11 18:42:29;;;;;;;18.45;11.30;;;;;;;-0.52;69.20;100504.19;7249187;40;20238;31
2024/01/11 18:48:08;;;;;;;18.87;11.07;;;;;;;-0.53;69.44;100490.06;7258264;40;20405;31
2024/01/11 18:53:41;;;;;;;18.90;11.00;;;;;;;-0.56;69.52;100478.75;7265760;39;20245;31
2024/01/11 18:59:17;;;;;;;18.20;10.20;;;;;;;-0.56;69.08;100499.94;7245275;40;20409;31
2024/01/11 19:04:52;;;;;;;18.55;10.55;;;;;;;-0.68;69.30;100480.16;7276080;39;20257;31
2024/01/11 19:10:26;;;;;;;19.90;11.40;;;;;;;-0.82;69.41;100481.66;7229837;40;20254;31
2024/01/11 19:16:02;;;;;;;17.57;11.10;;;;;;;-0.96;69.03;100498.09;7209436;40;20325;31
2024/01/11 19:21:37;;;;;;;17.35;9.95;;;;;;;-0.93;69.15;100495.34;7288155;39;20362;31
2024/01/11 19:27:13;;;;;;;15.05;9.65;;;;;;;-0.98;69.83;100495.53;7209761;40;20256;31
2024/01/11 19:32:48;;;;;;;12.37;8.43;;;;;;;-0.99;68.56;100485.00;7218428;40;20298;31
2024/01/11 19:38:23;;;;;;;22.90;14.37;;;;;;;-1.10;69.00;100485.44;7195999;40;20275;31
2024/01/11 19:43:58;;;;;;;16.17;10.33;;;;;;;-1.18;69.35;100499.88;7159084;40;20274;31
2024/01/11 19:49:33;;;;;;;14.00;9.40;;;;;;;-1.29;70.00;100508.25;7190268;40;20242;31
2024/01/11 19:54:54;;;;;;;13.77;9.40;;;;;;;-1.21;70.10;100506.16;7168955;40;20350;31
2024/01/11 20:00:32;;;;;;;15.05;9.20;;;;;;;-1.50;70.32;100502.03;7177018;40;20263;31
2024/01/11 20:05:52;;;;;;;13.40;8.50;;;;;;;-1.51;70.79;100512.63;7202275;40;20379;31
2024/01/11 20:11:27;;;;;;;16.90;8.80;;;;;;;-1.48;70.70;100507.22;7188482;40;20396;31
2024/01/11 20:17:04;;;;;;;15.17;8.03;;;;;;;-1.45;69.81;100517.69;7186982;40;20377;31
2024/01/11 20:22:24;;;;;;;13.60;7.90;;;;;;;-1.46;70.13;100531.84;7246642;39;20259;31
2024/01/11 20:27:59;;;;;;;14.60;8.20;;;;;;;-1.46;70.41;100531.84;7211736;40;20380;31
2024/01/11 20:33:36;;;;;;;13.33;8.47;;;;;;;-1.53;69.63;100532.97;7217621;40;20254;31
2024/01/11 20:39:11;;;;;;;13.77;8.43;;;;;;;-1.47;69.70;100543.31;7207106;40;20251;31
2024/01/11 20:44:31;;;;;;;12.03;7.83;;;;;;;-1.42;69.66;100538.72;7260705;40;20242;31
2024/01/11 20:50:05;;;;;;;16.83;9.73;;;;;;;-1.38;70.12;100548.25;7236166;40;20261;31
2024/01/11 20:55:25;;;;;;;12.30;7.50;;;;;;;-1.30;69.91;100532.09;7217250;40;21309;31
2024/01/11 21:01:01;;;;;;;12.20;7.90;;;;;;;-1.32;68.94;100550.69;7242599;40;20371;31
2024/01/11 21:06:37;;;;;;;12.80;7.30;;;;;;;-1.36;68.85;100541.97;7175869;40;20285;31
2024/01/11 21:12:12;;;;;;;12.43;8.23;;;;;;;-1.42;68.75;100534.31;7157245;40;20255;31
2024/01/11 21:17:47;;;;;;;13.73;8.00;;;;;;;-1.36;69.92;100533.19;7148869;40;20247;31
2024/01/11 21:23:23;;;;;;;12.27;7.63;;;;;;;-1.30;69.33;100538.25;7175626;40;20242;31
2024/01/11 21:28:58;;;;;;;12.77;7.73;;;;;;;-1.23;69.79;100536.25;7177110;40;20290;31
2024/01/11 21:34:33;;;;;;;11.77;7.73;;;;;;;-1.21;68.92;100535.25;7166236;40;20243;31
2024/01/11 21:40:09;;;;;;;13.25;7.95;;;;;;;-1.28;69.35;100528.50;7202740;40;21467;31
2024/01/11 21:45:45;;;;;;;12.37;7.83;;;;;;;-1.30;68.61;100535.59;7224716;40;20351;31
2024/01/11 21:51:06;;;;;;;12.90;8.30;;;;;;;-1.31;68.76;100530.34;7251816;40;20241;31
2024/01/11 21:56:42;;;;;;;15.20;9.55;;;;;;;-1.34;68.91;100527.84;7310146;39;20248;31
2024/01/11 22:02:03;;;;;;;14.70;8.53;;;;;;;-1.34;68.33;100526.06;7199349;40;20503;31
2024/01/11 22:07:21;;;;;;;14.60;8.55;;;;;;;-1.33;68.57;100525.16;7206247;40;20265;31
2024/01/11 22:12:57;;;;;;;14.97;8.33;;;;;;;-1.34;68.99;100519.91;7242526;40;20230;31
2024/01/11 22:18:32;;;;;;;15.10;8.80;;;;;;;-1.32;68.67;100518.94;7234534;40;20245;31
2024/01/11 22:24:07;;;;;;;13.70;8.48;;;;;;;-1.34;69.50;100515.50;7243760;40;20253;31
2024/01/11 22:29:44;;;;;;;12.13;7.73;;;;;;;-1.27;69.74;100524.06;7226658;40;20271;31
2024/01/11 22:35:17;;;;;;;12.20;6.90;;;;;;;-1.24;69.42;100529.22;7195990;40;20356;31
2024/01/11 22:40:52;;;;;;;14.00;7.87;;;;;;;-1.30;68.54;100530.31;7140019;40;20243;31
2024/01/11 22:46:28;;;;;;;13.20;7.90;;;;;;;-1.29;68.60;100539.97;7173802;40;20246;31
2024/01/11 22:51:49;;;;;;;14.65;8.10;;;;;;;-1.31;69.34;100535.66;7238714;39;20257;31
2024/01/11 22:57:23;;;;;;;14.33;8.27;;;;;;;-1.37;68.94;100544.72;7255188;39;20241;31
2024/01/11 23:02:59;;;;;;;14.53;8.10;;;;;;;-1.43;69.41;100534.34;7168865;40;20262;31
2024/01/11 23:08:20;;;;;;;14.90;8.80;;;;;;;-1.39;68.86;100541.25;7227370;40;20246;31
2024/01/11 23:13:41;;;;;;;14.07;8.57;;;;;;;-1.45;69.17;100544.12;7265535;40;20256;31
2024/01/11 23:19:17;;;;;;;15.27;8.47;;;;;;;-1.48;69.94;100542.47;7249061;40;20316;31
2024/01/11 23:24:38;;;;;;;15.43;8.17;;;;;;;-1.48;69.40;100552.16;7231001;40;20241;31
2024/01/11 23:29:59;;;;;;;18.50;8.25;;;;;;;-1.55;69.89;100542.75;7256711;40;20256;31
2024/01/11 23:35:35;;;;;;;15.10;8.67;;;;;;;-1.62;69.85;100530.66;7288796;40;20370;31
2024/01/11 23:41:10;;;;;;;15.20;9.17;;;;;;;-1.59;69.69;100528.81;7199404;40;20263;31
2024/01/11 23:46:31;;;;;;;16.50;9.60;;;;;;;-1.57;69.90;100528.72;7160497;40;20326;31
2024/01/11 23:52:06;;;;;;;16.37;9.90;;;;;;;-1.58;70.22;100529.66;7185333;40;20520;31
2024/01/11 23:57:42;;;;;;;16.27;9.30;;;;;;;-1.60;70.80;100529.72;7212852;40;20284;31
